sensor_id;sensor_type;location;lat;lon;timestamp;P1;durP1;ratioP1;P2;durP2;ratioP2
25299;SDS011;13241;51.208;4.432;2023-03-02T00:00:31;3.13;;;2.15;;
25299;SDS011;13241;51.208;4.432;2023-03-02T00:02:58;3.97;;;2.50;;
25299;SDS011;13241;51.208;4.432;2023-03-02T00:05:26;2.90;;;2.08;;
25299;SDS011;13241;51.208;4.432;2023-03-02T00:07:53;4.82;;;1.95;;
25299;SDS011;13241;51.208;4.432;2023-03-02T00:10:21;3.75;;;2.40;;
25299;SDS011;13241;51.208;4.432;2023-03-02T00:12:48;4.95;;;3.30;;
25299;SDS011;13241;51.208;4.432;2023-03-02T00:15:15;5.65;;;2.70;;
25299;SDS011;13241;51.208;4.432;2023-03-02T00:17:42;3.72;;;2.85;;
25299;SDS011;13241;51.208;4.432;2023-03-02T00:20:10;5.30;;;2.42;;
25299;SDS011;13241;51.208;4.432;2023-03-02T00:22:38;3.97;;;2.45;;
25299;SDS011;13241;51.208;4.432;2023-03-02T00:25:06;4.15;;;2.92;;
25299;SDS011;13241;51.208;4.432;2023-03-02T00:27:34;3.80;;;2.55;;
25299;SDS011;13241;51.208;4.432;2023-03-02T00:30:01;4.10;;;2.92;;
25299;SDS011;13241;51.208;4.432;2023-03-02T00:32:28;3.63;;;2.50;;
25299;SDS011;13241;51.208;4.432;2023-03-02T00:34:56;6.00;;;2.60;;
25299;SDS011;13241;51.208;4.432;2023-03-02T00:37:24;5.70;;;2.72;;
25299;SDS011;13241;51.208;4.432;2023-03-02T00:39:51;5.13;;;2.80;;
25299;SDS011;13241;51.208;4.432;2023-03-02T00:42:19;3.80;;;2.50;;
25299;SDS011;13241;51.208;4.432;2023-03-02T00:44:46;4.78;;;2.58;;
25299;SDS011;13241;51.208;4.432;2023-03-02T00:47:13;8.25;;;3.35;;
25299;SDS011;13241;51.208;4.432;2023-03-02T00:49:40;5.30;;;2.35;;
25299;SDS011;13241;51.208;4.432;2023-03-02T00:52:15;3.45;;;2.63;;
25299;SDS011;13241;51.208;4.432;2023-03-02T00:54:42;2.40;;;2.20;;
25299;SDS011;13241;51.208;4.432;2023-03-02T00:57:10;6.30;;;2.63;;
25299;SDS011;13241;51.208;4.432;2023-03-02T00:59:37;2.78;;;2.22;;
25299;SDS011;13241;51.208;4.432;2023-03-02T01:02:18;7.00;;;3.17;;
25299;SDS011;13241;51.208;4.432;2023-03-02T01:04:47;5.70;;;2.88;;
25299;SDS011;13241;51.208;4.432;2023-03-02T01:07:16;4.50;;;2.47;;
25299;SDS011;13241;51.208;4.432;2023-03-02T01:09:43;5.22;;;2.63;;
25299;SDS011;13241;51.208;4.432;2023-03-02T01:12:11;4.88;;;2.63;;
25299;SDS011;13241;51.208;4.432;2023-03-02T01:14:39;1.98;;;1.70;;
25299;SDS011;13241;51.208;4.432;2023-03-02T01:17:07;3.05;;;2.47;;
25299;SDS011;13241;51.208;4.432;2023-03-02T01:19:35;3.03;;;2.05;;
25299;SDS011;13241;51.208;4.432;2023-03-02T01:22:02;2.75;;;2.00;;
25299;SDS011;13241;51.208;4.432;2023-03-02T01:24:29;3.75;;;2.33;;
25299;SDS011;13241;51.208;4.432;2023-03-02T01:26:57;3.05;;;2.03;;
25299;SDS011;13241;51.208;4.432;2023-03-02T01:29:24;4.22;;;2.45;;
25299;SDS011;13241;51.208;4.432;2023-03-02T01:31:52;5.88;;;2.63;;
25299;SDS011;13241;51.208;4.432;2023-03-02T01:34:19;4.75;;;2.58;;
25299;SDS011;13241;51.208;4.432;2023-03-02T01:36:46;4.22;;;2.72;;
25299;SDS011;13241;51.208;4.432;2023-03-02T01:39:14;4.05;;;2.65;;
25299;SDS011;13241;51.208;4.432;2023-03-02T01:41:43;8.35;;;3.33;;
25299;SDS011;13241;51.208;4.432;2023-03-02T01:46:57;2.80;;;1.95;;
25299;SDS011;13241;51.208;4.432;2023-03-02T01:49:25;2.40;;;1.73;;
25299;SDS011;13241;51.208;4.432;2023-03-02T01:51:56;4.07;;;2.38;;
25299;SDS011;13241;51.208;4.432;2023-03-02T01:54:24;3.03;;;2.03;;
25299;SDS011;13241;51.208;4.432;2023-03-02T01:56:56;3.22;;;2.10;;
25299;SDS011;13241;51.208;4.432;2023-03-02T01:59:23;2.95;;;2.38;;
25299;SDS011;13241;51.208;4.432;2023-03-02T02:01:54;4.43;;;2.58;;
25299;SDS011;13241;51.208;4.432;2023-03-02T02:04:22;6.88;;;2.33;;
25299;SDS011;13241;51.208;4.432;2023-03-02T02:06:57;6.80;;;2.65;;
25299;SDS011;13241;51.208;4.432;2023-03-02T02:09:26;7.85;;;3.25;;
25299;SDS011;13241;51.208;4.432;2023-03-02T02:11:56;4.47;;;2.05;;
25299;SDS011;13241;51.208;4.432;2023-03-02T02:14:23;3.08;;;2.38;;
25299;SDS011;13241;51.208;4.432;2023-03-02T02:16:51;5.03;;;2.33;;
25299;SDS011;13241;51.208;4.432;2023-03-02T02:22:01;3.15;;;1.83;;
25299;SDS011;13241;51.208;4.432;2023-03-02T02:24:37;2.55;;;1.92;;
25299;SDS011;13241;51.208;4.432;2023-03-02T02:27:06;4.65;;;2.65;;
25299;SDS011;13241;51.208;4.432;2023-03-02T02:29:35;6.28;;;2.42;;
25299;SDS011;13241;51.208;4.432;2023-03-02T02:37:26;6.07;;;2.60;;
25299;SDS011;13241;51.208;4.432;2023-03-02T02:39:55;8.27;;;2.28;;
25299;SDS011;13241;51.208;4.432;2023-03-02T02:42:25;3.05;;;2.58;;
25299;SDS011;13241;51.208;4.432;2023-03-02T02:44:55;4.40;;;2.80;;
25299;SDS011;13241;51.208;4.432;2023-03-02T02:47:22;2.88;;;1.85;;
25299;SDS011;13241;51.208;4.432;2023-03-02T02:49:53;2.47;;;2.17;;
25299;SDS011;13241;51.208;4.432;2023-03-02T02:52:22;9.23;;;3.15;;
25299;SDS011;13241;51.208;4.432;2023-03-02T02:54:52;3.70;;;2.15;;
25299;SDS011;13241;51.208;4.432;2023-03-02T02:57:22;5.68;;;2.80;;
25299;SDS011;13241;51.208;4.432;2023-03-02T02:59:54;3.92;;;2.75;;
25299;SDS011;13241;51.208;4.432;2023-03-02T03:02:23;29.05;;;3.67;;
25299;SDS011;13241;51.208;4.432;2023-03-02T03:04:51;3.33;;;2.15;;
25299;SDS011;13241;51.208;4.432;2023-03-02T03:07:30;3.20;;;2.40;;
25299;SDS011;13241;51.208;4.432;2023-03-02T03:12:37;3.83;;;2.25;;
25299;SDS011;13241;51.208;4.432;2023-03-02T03:15:05;3.38;;;2.55;;
25299;SDS011;13241;51.208;4.432;2023-03-02T03:17:36;5.65;;;2.97;;
25299;SDS011;13241;51.208;4.432;2023-03-02T03:20:04;2.90;;;2.28;;
25299;SDS011;13241;51.208;4.432;2023-03-02T03:22:35;11.50;;;2.40;;
25299;SDS011;13241;51.208;4.432;2023-03-02T03:25:05;6.05;;;3.20;;
25299;SDS011;13241;51.208;4.432;2023-03-02T03:27:32;5.30;;;3.00;;
25299;SDS011;13241;51.208;4.432;2023-03-02T03:30:01;6.32;;;2.97;;
25299;SDS011;13241;51.208;4.432;2023-03-02T03:32:32;3.42;;;2.25;;
25299;SDS011;13241;51.208;4.432;2023-03-02T03:35:01;4.22;;;2.60;;
25299;SDS011;13241;51.208;4.432;2023-03-02T03:37:31;3.40;;;2.20;;
25299;SDS011;13241;51.208;4.432;2023-03-02T03:39:58;2.70;;;2.05;;
25299;SDS011;13241;51.208;4.432;2023-03-02T03:42:27;4.15;;;2.78;;
25299;SDS011;13241;51.208;4.432;2023-03-02T03:44:56;4.10;;;2.17;;
25299;SDS011;13241;51.208;4.432;2023-03-02T03:47:24;7.03;;;2.55;;
25299;SDS011;13241;51.208;4.432;2023-03-02T03:49:51;4.93;;;2.35;;
25299;SDS011;13241;51.208;4.432;2023-03-02T03:52:19;2.80;;;2.20;;
25299;SDS011;13241;51.208;4.432;2023-03-02T03:55:01;3.40;;;2.30;;
25299;SDS011;13241;51.208;4.432;2023-03-02T03:57:28;3.13;;;2.35;;
25299;SDS011;13241;51.208;4.432;2023-03-02T03:59:55;2.55;;;2.08;;
25299;SDS011;13241;51.208;4.432;2023-03-02T04:02:23;2.30;;;2.05;;
25299;SDS011;13241;51.208;4.432;2023-03-02T04:04:50;4.75;;;2.47;;
25299;SDS011;13241;51.208;4.432;2023-03-02T04:07:18;3.15;;;1.90;;
25299;SDS011;13241;51.208;4.432;2023-03-02T04:09:45;1.75;;;1.65;;
25299;SDS011;13241;51.208;4.432;2023-03-02T04:12:14;3.33;;;2.35;;
25299;SDS011;13241;51.208;4.432;2023-03-02T04:14:45;4.07;;;2.05;;
25299;SDS011;13241;51.208;4.432;2023-03-02T04:17:13;3.05;;;1.92;;
25299;SDS011;13241;51.208;4.432;2023-03-02T04:19:43;7.22;;;2.63;;
25299;SDS011;13241;51.208;4.432;2023-03-02T04:22:11;15.77;;;3.50;;
25299;SDS011;13241;51.208;4.432;2023-03-02T04:24:38;5.05;;;3.35;;
25299;SDS011;13241;51.208;4.432;2023-03-02T04:27:06;4.72;;;3.05;;
25299;SDS011;13241;51.208;4.432;2023-03-02T04:29:35;3.17;;;2.80;;
25299;SDS011;13241;51.208;4.432;2023-03-02T04:32:04;5.50;;;3.95;;
25299;SDS011;13241;51.208;4.432;2023-03-02T04:34:33;6.50;;;4.22;;
25299;SDS011;13241;51.208;4.432;2023-03-02T04:37:01;9.52;;;5.32;;
25299;SDS011;13241;51.208;4.432;2023-03-02T04:39:28;9.63;;;4.70;;
25299;SDS011;13241;51.208;4.432;2023-03-02T04:41:56;6.22;;;3.78;;
25299;SDS011;13241;51.208;4.432;2023-03-02T04:44:23;7.75;;;3.63;;
25299;SDS011;13241;51.208;4.432;2023-03-02T04:46:50;8.82;;;4.20;;
25299;SDS011;13241;51.208;4.432;2023-03-02T04:49:18;11.23;;;5.63;;
25299;SDS011;13241;51.208;4.432;2023-03-02T04:51:47;7.25;;;3.75;;
25299;SDS011;13241;51.208;4.432;2023-03-02T04:54:19;9.65;;;4.53;;
25299;SDS011;13241;51.208;4.432;2023-03-02T04:56:47;11.40;;;6.30;;
25299;SDS011;13241;51.208;4.432;2023-03-02T04:59:20;10.45;;;5.78;;
25299;SDS011;13241;51.208;4.432;2023-03-02T05:01:49;12.03;;;4.70;;
25299;SDS011;13241;51.208;4.432;2023-03-02T05:04:16;5.45;;;4.47;;
25299;SDS011;13241;51.208;4.432;2023-03-02T05:06:44;18.45;;;6.22;;
25299;SDS011;13241;51.208;4.432;2023-03-02T05:09:11;13.90;;;4.38;;
25299;SDS011;13241;51.208;4.432;2023-03-02T05:11:38;9.15;;;6.03;;
25299;SDS011;13241;51.208;4.432;2023-03-02T05:14:07;10.18;;;5.55;;
25299;SDS011;13241;51.208;4.432;2023-03-02T05:16:35;9.32;;;5.68;;
25299;SDS011;13241;51.208;4.432;2023-03-02T05:19:07;8.85;;;6.03;;
25299;SDS011;13241;51.208;4.432;2023-03-02T05:21:34;11.75;;;5.68;;
25299;SDS011;13241;51.208;4.432;2023-03-02T05:24:01;18.40;;;6.50;;
25299;SDS011;13241;51.208;4.432;2023-03-02T05:26:29;12.20;;;6.07;;
25299;SDS011;13241;51.208;4.432;2023-03-02T05:28:57;20.48;;;6.70;;
25299;SDS011;13241;51.208;4.432;2023-03-02T05:31:32;14.75;;;6.50;;
25299;SDS011;13241;51.208;4.432;2023-03-02T05:34:03;13.35;;;6.20;;
25299;SDS011;13241;51.208;4.432;2023-03-02T05:36:31;8.30;;;5.18;;
25299;SDS011;13241;51.208;4.432;2023-03-02T05:38:59;10.32;;;6.85;;
25299;SDS011;13241;51.208;4.432;2023-03-02T05:41:26;12.82;;;5.55;;
25299;SDS011;13241;51.208;4.432;2023-03-02T05:43:54;14.45;;;7.10;;
25299;SDS011;13241;51.208;4.432;2023-03-02T05:46:21;12.25;;;6.03;;
25299;SDS011;13241;51.208;4.432;2023-03-02T05:48:49;14.13;;;6.45;;
25299;SDS011;13241;51.208;4.432;2023-03-02T05:51:16;16.00;;;7.65;;
25299;SDS011;13241;51.208;4.432;2023-03-02T05:53:43;12.95;;;6.68;;
25299;SDS011;13241;51.208;4.432;2023-03-02T05:56:10;16.50;;;7.53;;
25299;SDS011;13241;51.208;4.432;2023-03-02T05:58:37;17.25;;;7.32;;
25299;SDS011;13241;51.208;4.432;2023-03-02T06:01:08;18.52;;;8.25;;
25299;SDS011;13241;51.208;4.432;2023-03-02T06:03:40;29.17;;;6.90;;
25299;SDS011;13241;51.208;4.432;2023-03-02T06:06:08;10.25;;;5.72;;
25299;SDS011;13241;51.208;4.432;2023-03-02T06:08:39;17.42;;;8.68;;
25299;SDS011;13241;51.208;4.432;2023-03-02T06:11:06;11.57;;;6.82;;
25299;SDS011;13241;51.208;4.432;2023-03-02T06:13:34;16.85;;;6.93;;
25299;SDS011;13241;51.208;4.432;2023-03-02T06:16:01;18.30;;;8.45;;
25299;SDS011;13241;51.208;4.432;2023-03-02T06:18:29;13.80;;;7.50;;
25299;SDS011;13241;51.208;4.432;2023-03-02T06:20:56;13.55;;;8.20;;
25299;SDS011;13241;51.208;4.432;2023-03-02T06:23:24;17.13;;;8.18;;
25299;SDS011;13241;51.208;4.432;2023-03-02T06:25:51;13.05;;;7.00;;
25299;SDS011;13241;51.208;4.432;2023-03-02T06:28:18;16.83;;;7.80;;
25299;SDS011;13241;51.208;4.432;2023-03-02T06:30:47;18.00;;;8.40;;
25299;SDS011;13241;51.208;4.432;2023-03-02T06:33:15;16.63;;;8.50;;
25299;SDS011;13241;51.208;4.432;2023-03-02T06:35:43;16.80;;;8.20;;
25299;SDS011;13241;51.208;4.432;2023-03-02T06:38:11;25.77;;;7.93;;
25299;SDS011;13241;51.208;4.432;2023-03-02T06:40:38;14.80;;;6.80;;
25299;SDS011;13241;51.208;4.432;2023-03-02T06:43:05;14.68;;;7.30;;
25299;SDS011;13241;51.208;4.432;2023-03-02T06:45:33;18.55;;;8.23;;
25299;SDS011;13241;51.208;4.432;2023-03-02T06:48:00;16.67;;;7.22;;
25299;SDS011;13241;51.208;4.432;2023-03-02T06:50:28;20.92;;;8.50;;
25299;SDS011;13241;51.208;4.432;2023-03-02T06:52:55;15.43;;;7.72;;
25299;SDS011;13241;51.208;4.432;2023-03-02T06:55:22;16.48;;;7.40;;
25299;SDS011;13241;51.208;4.432;2023-03-02T06:57:50;17.52;;;8.65;;
25299;SDS011;13241;51.208;4.432;2023-03-02T07:00:17;14.38;;;6.45;;
25299;SDS011;13241;51.208;4.432;2023-03-02T07:02:51;23.17;;;8.65;;
25299;SDS011;13241;51.208;4.432;2023-03-02T07:05:19;14.52;;;6.70;;
25299;SDS011;13241;51.208;4.432;2023-03-02T07:07:46;18.42;;;7.97;;
25299;SDS011;13241;51.208;4.432;2023-03-02T07:10:14;12.35;;;5.93;;
25299;SDS011;13241;51.208;4.432;2023-03-02T07:12:41;19.35;;;7.63;;
25299;SDS011;13241;51.208;4.432;2023-03-02T07:15:12;14.52;;;6.72;;
25299;SDS011;13241;51.208;4.432;2023-03-02T07:17:41;13.95;;;7.55;;
25299;SDS011;13241;51.208;4.432;2023-03-02T07:20:10;19.55;;;8.10;;
25299;SDS011;13241;51.208;4.432;2023-03-02T07:22:37;19.10;;;7.80;;
25299;SDS011;13241;51.208;4.432;2023-03-02T07:25:05;19.83;;;7.88;;
25299;SDS011;13241;51.208;4.432;2023-03-02T07:27:33;13.35;;;6.25;;
25299;SDS011;13241;51.208;4.432;2023-03-02T07:30:00;18.38;;;7.80;;
25299;SDS011;13241;51.208;4.432;2023-03-02T07:32:27;17.92;;;8.63;;
25299;SDS011;13241;51.208;4.432;2023-03-02T07:34:55;11.85;;;6.35;;
25299;SDS011;13241;51.208;4.432;2023-03-02T07:37:22;16.40;;;7.72;;
25299;SDS011;13241;51.208;4.432;2023-03-02T07:39:49;16.67;;;9.48;;
25299;SDS011;13241;51.208;4.432;2023-03-02T07:42:17;11.40;;;7.75;;
25299;SDS011;13241;51.208;4.432;2023-03-02T07:44:50;19.58;;;7.28;;
25299;SDS011;13241;51.208;4.432;2023-03-02T07:47:18;27.02;;;10.98;;
25299;SDS011;13241;51.208;4.432;2023-03-02T07:49:45;18.50;;;7.85;;
25299;SDS011;13241;51.208;4.432;2023-03-02T07:52:14;20.42;;;8.48;;
25299;SDS011;13241;51.208;4.432;2023-03-02T07:54:41;16.70;;;7.32;;
25299;SDS011;13241;51.208;4.432;2023-03-02T07:57:09;17.13;;;8.80;;
25299;SDS011;13241;51.208;4.432;2023-03-02T07:59:39;17.88;;;8.88;;
25299;SDS011;13241;51.208;4.432;2023-03-02T08:02:07;22.40;;;9.02;;
25299;SDS011;13241;51.208;4.432;2023-03-02T08:04:35;17.95;;;7.50;;
25299;SDS011;13241;51.208;4.432;2023-03-02T08:07:02;13.88;;;7.28;;
25299;SDS011;13241;51.208;4.432;2023-03-02T08:09:29;14.23;;;7.18;;
25299;SDS011;13241;51.208;4.432;2023-03-02T08:11:57;26.58;;;9.65;;
25299;SDS011;13241;51.208;4.432;2023-03-02T08:14:25;23.90;;;9.57;;
25299;SDS011;13241;51.208;4.432;2023-03-02T08:16:53;18.27;;;8.75;;
25299;SDS011;13241;51.208;4.432;2023-03-02T08:19:20;28.63;;;8.43;;
25299;SDS011;13241;51.208;4.432;2023-03-02T08:21:47;17.23;;;7.72;;
25299;SDS011;13241;51.208;4.432;2023-03-02T08:24:14;16.67;;;7.40;;
25299;SDS011;13241;51.208;4.432;2023-03-02T08:26:42;16.23;;;7.50;;
25299;SDS011;13241;51.208;4.432;2023-03-02T08:29:09;21.70;;;7.80;;
25299;SDS011;13241;51.208;4.432;2023-03-02T08:31:36;30.38;;;10.27;;
25299;SDS011;13241;51.208;4.432;2023-03-02T08:34:04;16.58;;;7.03;;
25299;SDS011;13241;51.208;4.432;2023-03-02T08:36:31;26.00;;;8.07;;
25299;SDS011;13241;51.208;4.432;2023-03-02T08:38:58;21.08;;;7.22;;
25299;SDS011;13241;51.208;4.432;2023-03-02T08:41:26;20.73;;;8.02;;
25299;SDS011;13241;51.208;4.432;2023-03-02T08:43:53;22.85;;;7.68;;
25299;SDS011;13241;51.208;4.432;2023-03-02T08:46:21;20.52;;;7.18;;
25299;SDS011;13241;51.208;4.432;2023-03-02T08:48:49;21.35;;;7.35;;
25299;SDS011;13241;51.208;4.432;2023-03-02T08:51:17;20.73;;;7.80;;
25299;SDS011;13241;51.208;4.432;2023-03-02T08:53:46;14.18;;;7.20;;
25299;SDS011;13241;51.208;4.432;2023-03-02T08:56:23;25.02;;;7.50;;
25299;SDS011;13241;51.208;4.432;2023-03-02T08:58:51;12.07;;;5.60;;
25299;SDS011;13241;51.208;4.432;2023-03-02T09:01:20;12.32;;;7.22;;
25299;SDS011;13241;51.208;4.432;2023-03-02T09:03:48;25.42;;;7.78;;
25299;SDS011;13241;51.208;4.432;2023-03-02T09:06:15;22.48;;;7.93;;
25299;SDS011;13241;51.208;4.432;2023-03-02T09:08:43;16.10;;;6.60;;
25299;SDS011;13241;51.208;4.432;2023-03-02T09:11:10;19.23;;;7.38;;
25299;SDS011;13241;51.208;4.432;2023-03-02T09:13:38;14.82;;;6.50;;
25299;SDS011;13241;51.208;4.432;2023-03-02T09:16:05;30.60;;;8.63;;
25299;SDS011;13241;51.208;4.432;2023-03-02T09:18:34;18.00;;;7.05;;
25299;SDS011;13241;51.208;4.432;2023-03-02T09:21:01;10.70;;;5.22;;
25299;SDS011;13241;51.208;4.432;2023-03-02T09:23:28;12.57;;;5.50;;
25299;SDS011;13241;51.208;4.432;2023-03-02T09:25:56;18.30;;;6.35;;
25299;SDS011;13241;51.208;4.432;2023-03-02T09:28:23;12.32;;;6.25;;
25299;SDS011;13241;51.208;4.432;2023-03-02T09:30:51;15.82;;;6.85;;
25299;SDS011;13241;51.208;4.432;2023-03-02T09:33:19;10.18;;;6.30;;
25299;SDS011;13241;51.208;4.432;2023-03-02T09:35:46;14.32;;;7.53;;
25299;SDS011;13241;51.208;4.432;2023-03-02T09:38:14;15.93;;;7.03;;
25299;SDS011;13241;51.208;4.432;2023-03-02T09:41:06;12.88;;;5.88;;
25299;SDS011;13241;51.208;4.432;2023-03-02T09:46:13;11.55;;;6.57;;
25299;SDS011;13241;51.208;4.432;2023-03-02T09:51:18;22.25;;;7.72;;
25299;SDS011;13241;51.208;4.432;2023-03-02T09:56:20;16.35;;;6.38;;
25299;SDS011;13241;51.208;4.432;2023-03-02T09:59:00;16.90;;;8.50;;
25299;SDS011;13241;51.208;4.432;2023-03-02T10:01:31;11.38;;;5.78;;
25299;SDS011;13241;51.208;4.432;2023-03-02T10:04:08;15.05;;;7.57;;
25299;SDS011;13241;51.208;4.432;2023-03-02T10:06:37;12.43;;;5.90;;
25299;SDS011;13241;51.208;4.432;2023-03-02T10:09:04;13.55;;;5.47;;
25299;SDS011;13241;51.208;4.432;2023-03-02T10:12:16;17.00;;;7.10;;
25299;SDS011;13241;51.208;4.432;2023-03-02T10:14:23;17.58;;;6.95;;
25299;SDS011;13241;51.208;4.432;2023-03-02T10:16:58;16.85;;;6.90;;
25299;SDS011;13241;51.208;4.432;2023-03-02T10:19:31;15.75;;;6.57;;
25299;SDS011;13241;51.208;4.432;2023-03-02T10:22:03;14.13;;;7.18;;
25299;SDS011;13241;51.208;4.432;2023-03-02T10:24:37;16.52;;;7.78;;
25299;SDS011;13241;51.208;4.432;2023-03-02T10:27:15;13.68;;;6.30;;
25299;SDS011;13241;51.208;4.432;2023-03-02T10:32:16;8.23;;;4.72;;
25299;SDS011;13241;51.208;4.432;2023-03-02T10:34:45;12.07;;;6.50;;
25299;SDS011;13241;51.208;4.432;2023-03-02T10:37:14;13.30;;;6.68;;
25299;SDS011;13241;51.208;4.432;2023-03-02T10:39:42;13.65;;;5.88;;
25299;SDS011;13241;51.208;4.432;2023-03-02T10:42:12;18.85;;;6.95;;
25299;SDS011;13241;51.208;4.432;2023-03-02T10:44:42;16.77;;;7.57;;
25299;SDS011;13241;51.208;4.432;2023-03-02T10:47:21;11.57;;;5.45;;
25299;SDS011;13241;51.208;4.432;2023-03-02T10:49:49;13.02;;;6.40;;
25299;SDS011;13241;51.208;4.432;2023-03-02T10:52:18;12.73;;;6.13;;
25299;SDS011;13241;51.208;4.432;2023-03-02T10:54:46;11.45;;;6.63;;
25299;SDS011;13241;51.208;4.432;2023-03-02T10:57:26;17.27;;;7.20;;
25299;SDS011;13241;51.208;4.432;2023-03-02T11:02:47;16.40;;;7.38;;
25299;SDS011;13241;51.208;4.432;2023-03-02T11:11:01;15.95;;;6.28;;
25299;SDS011;13241;51.208;4.432;2023-03-02T11:15:57;17.73;;;6.35;;
25299;SDS011;13241;51.208;4.432;2023-03-02T11:18:41;14.32;;;6.40;;
25299;SDS011;13241;51.208;4.432;2023-03-02T11:21:20;12.80;;;6.85;;
25299;SDS011;13241;51.208;4.432;2023-03-02T11:23:57;11.15;;;5.63;;
25299;SDS011;13241;51.208;4.432;2023-03-02T11:26:31;9.65;;;5.05;;
25299;SDS011;13241;51.208;4.432;2023-03-02T11:42:24;15.00;;;6.00;;
25299;SDS011;13241;51.208;4.432;2023-03-02T11:44:53;12.43;;;6.13;;
25299;SDS011;13241;51.208;4.432;2023-03-02T11:47:20;16.60;;;6.13;;
25299;SDS011;13241;51.208;4.432;2023-03-02T11:49:51;14.32;;;6.55;;
25299;SDS011;13241;51.208;4.432;2023-03-02T11:52:25;15.13;;;6.18;;
25299;SDS011;13241;51.208;4.432;2023-03-02T11:54:58;11.63;;;4.68;;
25299;SDS011;13241;51.208;4.432;2023-03-02T11:57:34;11.13;;;5.30;;
25299;SDS011;13241;51.208;4.432;2023-03-02T12:00:09;15.13;;;6.50;;
25299;SDS011;13241;51.208;4.432;2023-03-02T12:02:38;13.85;;;5.70;;
25299;SDS011;13241;51.208;4.432;2023-03-02T12:05:06;21.63;;;5.90;;
25299;SDS011;13241;51.208;4.432;2023-03-02T12:07:34;13.48;;;5.80;;
25299;SDS011;13241;51.208;4.432;2023-03-02T12:10:06;17.25;;;6.68;;
25299;SDS011;13241;51.208;4.432;2023-03-02T12:12:37;13.05;;;5.65;;
25299;SDS011;13241;51.208;4.432;2023-03-02T12:17:51;21.42;;;6.70;;
25299;SDS011;13241;51.208;4.432;2023-03-02T12:22:46;11.38;;;5.68;;
25299;SDS011;13241;51.208;4.432;2023-03-02T12:27:47;16.05;;;5.80;;
25299;SDS011;13241;51.208;4.432;2023-03-02T12:32:42;10.52;;;5.40;;
25299;SDS011;13241;51.208;4.432;2023-03-02T12:35:10;15.30;;;5.78;;
25299;SDS011;13241;51.208;4.432;2023-03-02T12:45:51;8.50;;;4.30;;
25299;SDS011;13241;51.208;4.432;2023-03-02T12:50:49;10.88;;;4.90;;
25299;SDS011;13241;51.208;4.432;2023-03-02T12:53:18;16.77;;;7.00;;
25299;SDS011;13241;51.208;4.432;2023-03-02T12:55:46;16.92;;;6.35;;
25299;SDS011;13241;51.208;4.432;2023-03-02T12:58:17;11.95;;;5.43;;
25299;SDS011;13241;51.208;4.432;2023-03-02T13:00:52;16.08;;;5.00;;
25299;SDS011;13241;51.208;4.432;2023-03-02T13:03:20;13.30;;;6.57;;
25299;SDS011;13241;51.208;4.432;2023-03-02T13:05:47;11.77;;;6.25;;
25299;SDS011;13241;51.208;4.432;2023-03-02T13:08:16;10.55;;;5.85;;
25299;SDS011;13241;51.208;4.432;2023-03-02T13:10:50;13.32;;;6.45;;
25299;SDS011;13241;51.208;4.432;2023-03-02T13:13:22;12.20;;;5.65;;
25299;SDS011;13241;51.208;4.432;2023-03-02T13:15:56;13.82;;;5.45;;
25299;SDS011;13241;51.208;4.432;2023-03-02T13:18:26;18.25;;;6.47;;
25299;SDS011;13241;51.208;4.432;2023-03-02T13:20:57;11.07;;;5.25;;
25299;SDS011;13241;51.208;4.432;2023-03-02T13:23:25;12.70;;;5.60;;
25299;SDS011;13241;51.208;4.432;2023-03-02T13:25:56;12.07;;;6.18;;
25299;SDS011;13241;51.208;4.432;2023-03-02T13:28:31;13.80;;;5.35;;
25299;SDS011;13241;51.208;4.432;2023-03-02T13:33:30;9.48;;;5.20;;
25299;SDS011;13241;51.208;4.432;2023-03-02T13:35:57;9.65;;;4.78;;
25299;SDS011;13241;51.208;4.432;2023-03-02T13:38:26;12.60;;;5.00;;
25299;SDS011;13241;51.208;4.432;2023-03-02T13:40:56;7.63;;;4.18;;
25299;SDS011;13241;51.208;4.432;2023-03-02T13:46:02;7.50;;;4.05;;
25299;SDS011;13241;51.208;4.432;2023-03-02T13:48:30;8.90;;;5.38;;
25299;SDS011;13241;51.208;4.432;2023-03-02T13:53:41;11.45;;;3.92;;
25299;SDS011;13241;51.208;4.432;2023-03-02T13:56:11;11.63;;;5.90;;
25299;SDS011;13241;51.208;4.432;2023-03-02T13:58:42;13.38;;;5.03;;
25299;SDS011;13241;51.208;4.432;2023-03-02T14:01:09;11.98;;;5.50;;
25299;SDS011;13241;51.208;4.432;2023-03-02T14:03:37;13.90;;;6.25;;
25299;SDS011;13241;51.208;4.432;2023-03-02T14:06:05;11.75;;;5.20;;
25299;SDS011;13241;51.208;4.432;2023-03-02T14:08:32;16.98;;;5.75;;
25299;SDS011;13241;51.208;4.432;2023-03-02T14:10:59;13.10;;;6.10;;
25299;SDS011;13241;51.208;4.432;2023-03-02T14:16:03;13.07;;;5.75;;
25299;SDS011;13241;51.208;4.432;2023-03-02T14:18:37;12.07;;;4.15;;
25299;SDS011;13241;51.208;4.432;2023-03-02T14:21:08;12.55;;;4.55;;
25299;SDS011;13241;51.208;4.432;2023-03-02T14:23:37;11.70;;;4.85;;
25299;SDS011;13241;51.208;4.432;2023-03-02T14:28:39;14.80;;;4.93;;
25299;SDS011;13241;51.208;4.432;2023-03-02T14:31:07;12.88;;;5.40;;
25299;SDS011;13241;51.208;4.432;2023-03-02T14:33:34;8.98;;;4.80;;
25299;SDS011;13241;51.208;4.432;2023-03-02T14:36:02;9.48;;;4.22;;
25299;SDS011;13241;51.208;4.432;2023-03-02T14:38:31;13.07;;;6.35;;
25299;SDS011;13241;51.208;4.432;2023-03-02T14:40:58;20.38;;;6.15;;
25299;SDS011;13241;51.208;4.432;2023-03-02T14:43:25;12.85;;;5.05;;
25299;SDS011;13241;51.208;4.432;2023-03-02T14:45:53;11.35;;;4.88;;
25299;SDS011;13241;51.208;4.432;2023-03-02T14:48:20;7.57;;;4.35;;
25299;SDS011;13241;51.208;4.432;2023-03-02T14:50:47;15.23;;;5.85;;
25299;SDS011;13241;51.208;4.432;2023-03-02T14:53:19;10.68;;;5.50;;
25299;SDS011;13241;51.208;4.432;2023-03-02T14:55:48;12.13;;;5.13;;
25299;SDS011;13241;51.208;4.432;2023-03-02T14:58:16;11.18;;;5.15;;
25299;SDS011;13241;51.208;4.432;2023-03-02T15:00:45;7.82;;;4.50;;
25299;SDS011;13241;51.208;4.432;2023-03-02T15:03:14;13.57;;;5.75;;
25299;SDS011;13241;51.208;4.432;2023-03-02T15:05:44;11.52;;;5.10;;
25299;SDS011;13241;51.208;4.432;2023-03-02T15:08:25;17.73;;;5.60;;
25299;SDS011;13241;51.208;4.432;2023-03-02T15:10:53;18.98;;;5.78;;
25299;SDS011;13241;51.208;4.432;2023-03-02T15:13:20;14.25;;;5.57;;
25299;SDS011;13241;51.208;4.432;2023-03-02T15:15:47;11.75;;;4.70;;
25299;SDS011;13241;51.208;4.432;2023-03-02T15:18:15;10.80;;;5.50;;
25299;SDS011;13241;51.208;4.432;2023-03-02T15:20:45;14.55;;;5.82;;
25299;SDS011;13241;51.208;4.432;2023-03-02T15:23:12;10.43;;;4.45;;
25299;SDS011;13241;51.208;4.432;2023-03-02T15:25:39;10.13;;;4.22;;
25299;SDS011;13241;51.208;4.432;2023-03-02T15:28:08;10.00;;;4.55;;
25299;SDS011;13241;51.208;4.432;2023-03-02T15:30:35;9.80;;;4.40;;
25299;SDS011;13241;51.208;4.432;2023-03-02T15:33:02;15.93;;;4.35;;
25299;SDS011;13241;51.208;4.432;2023-03-02T15:35:29;13.98;;;5.45;;
25299;SDS011;13241;51.208;4.432;2023-03-02T15:37:57;10.32;;;5.13;;
25299;SDS011;13241;51.208;4.432;2023-03-02T15:40:27;7.20;;;3.75;;
25299;SDS011;13241;51.208;4.432;2023-03-02T15:42:55;9.70;;;5.13;;
25299;SDS011;13241;51.208;4.432;2023-03-02T15:45:22;10.88;;;3.97;;
25299;SDS011;13241;51.208;4.432;2023-03-02T15:47:49;7.47;;;3.03;;
25299;SDS011;13241;51.208;4.432;2023-03-02T15:50:17;10.30;;;4.65;;
25299;SDS011;13241;51.208;4.432;2023-03-02T15:52:44;11.60;;;4.40;;
25299;SDS011;13241;51.208;4.432;2023-03-02T15:55:11;8.02;;;3.92;;
25299;SDS011;13241;51.208;4.432;2023-03-02T15:57:42;7.32;;;4.00;;
25299;SDS011;13241;51.208;4.432;2023-03-02T16:00:09;8.57;;;3.75;;
25299;SDS011;13241;51.208;4.432;2023-03-02T16:02:38;7.13;;;3.67;;
25299;SDS011;13241;51.208;4.432;2023-03-02T16:05:06;8.45;;;3.72;;
25299;SDS011;13241;51.208;4.432;2023-03-02T16:07:34;8.25;;;4.32;;
25299;SDS011;13241;51.208;4.432;2023-03-02T16:10:02;5.28;;;3.75;;
25299;SDS011;13241;51.208;4.432;2023-03-02T16:12:29;12.48;;;3.83;;